Time;durP1;ratioP1;P1;durP2;ratioP2;P2;SDS_P1;SDS_P2;PMS_P1;PMS_P2;Temp;Humidity;BMP_temperature;BMP_pressure;BME280_temperature;BME280_humidity;BME280_pressure;Samples;Min_cycle;Max_cycle;Signal;HPM_P1;HPM_P2
2022/07/13 00:01:16;;;;;;;;;;;20.90;99.90;;;;;;5068644;28;20272;-69
2022/07/13 00:03:43;;;;;;;;;;;20.90;99.90;;;;;;5072576;28;20198;-69
2022/07/13 00:06:13;;;;;;;;;;;20.80;99.90;;;;;;5073847;28;20194;-70
2022/07/13 00:08:41;;;;;;;;;;;20.80;99.90;;;;;;5077346;28;20252;-70
2022/07/13 00:11:08;;;;;;;;;;;20.70;99.90;;;;;;5069024;28;20202;-71
2022/07/13 00:13:36;;;;;;;;;;;20.70;99.90;;;;;;5068933;28;20202;-71
2022/07/13 00:16:04;;;;;;;;;;;20.70;99.90;;;;;;5071878;28;20201;-68
2022/07/13 00:18:32;;;;;;;;;;;20.70;99.90;;;;;;5070476;28;20198;-70
2022/07/13 00:21:00;;;;;;;;;;;20.70;99.90;;;;;;5071462;28;20205;-68
2022/07/13 00:23:30;;;;;;;;;;;20.70;99.90;;;;;;5067271;28;20208;-69
2022/07/13 00:25:57;;;;;;;;;;;20.70;99.90;;;;;;5071453;28;20202;-69
2022/07/13 00:28:25;;;;;;;;;;;20.70;99.90;;;;;;5071266;28;20198;-68
2022/07/13 00:30:53;;;;;;;;;;;20.70;99.90;;;;;;5071313;28;20221;-70
2022/07/13 00:33:21;;;;;;;;;;;20.70;99.90;;;;;;5068867;28;20193;-70
2022/07/13 00:35:49;;;;;;;;;;;20.70;99.90;;;;;;5070373;28;20735;-69
2022/07/13 00:38:16;;;;;;;;;;;20.70;99.90;;;;;;5069698;28;20209;-68
2022/07/13 00:40:45;;;;;;;;;;;20.70;99.90;;;;;;5069877;28;20206;-69
2022/07/13 00:43:13;;;;;;;;;;;20.80;99.90;;;;;;5067230;28;20197;-67
2022/07/13 00:45:41;;;;;;;;;;;20.80;99.90;;;;;;5072467;28;20222;-69
2022/07/13 00:48:09;;;;;;;;;;;20.80;99.90;;;;;;5067505;28;20923;-69
2022/07/13 00:50:37;;;;;;;;;;;20.80;99.90;;;;;;5070701;28;20248;-69
2022/07/13 00:53:05;;;;;;;;;;;20.80;99.90;;;;;;5068266;28;20251;-70
2022/07/13 00:55:33;;;;;;;;;;;20.80;99.90;;;;;;5066825;28;20202;-69
2022/07/13 00:58:02;;;;;;;;;;;20.90;99.90;;;;;;5071040;28;20202;-70
2022/07/13 01:00:30;;;;;;;;;;;20.90;99.90;;;;;;5070771;28;20198;-69
2022/07/13 01:02:58;;;;;;;;;;;21.00;99.90;;;;;;5068311;28;20213;-69
2022/07/13 01:05:26;;;;;;;;;;;21.00;99.90;;;;;;5069978;28;20263;-69
2022/07/13 01:07:54;;;;;;;;;;;21.00;99.90;;;;;;5069721;28;20193;-70
2022/07/13 01:10:22;;;;;;;;;;;21.00;99.90;;;;;;5065868;28;20299;-69
2022/07/13 01:12:49;;;;;;;;;;;21.00;99.90;;;;;;5069414;28;20198;-69
2022/07/13 01:15:19;;;;;;;;;;;20.90;99.90;;;;;;5070024;28;20243;-69
2022/07/13 01:17:47;;;;;;;;;;;21.00;99.90;;;;;;5068959;28;20210;-69
2022/07/13 01:20:17;;;;;;;;;;;21.00;99.90;;;;;;5066376;28;20202;-70
2022/07/13 01:22:46;;;;;;;;;;;21.00;99.90;;;;;;5070430;28;20194;-70
2022/07/13 01:25:15;;;;;;;;;;;21.00;99.90;;;;;;5069959;28;20209;-69
2022/07/13 01:27:43;;;;;;;;;;;21.00;99.90;;;;;;5069974;28;20201;-69
2022/07/13 01:30:11;;;;;;;;;;;21.00;99.90;;;;;;5065539;28;20202;-69
2022/07/13 01:32:46;;;;;;;;;;;20.90;99.90;;;;;;5069321;28;20916;-70
2022/07/13 01:35:13;;;;;;;;;;;20.80;99.90;;;;;;5067386;28;20201;-69
2022/07/13 01:37:42;;;;;;;;;;;20.90;99.90;;;;;;5068649;28;20614;-68
2022/07/13 01:40:10;;;;;;;;;;;20.90;99.90;;;;;;5069707;28;20247;-69
2022/07/13 01:42:43;;;;;;;;;;;20.90;99.90;;;;;;5070507;28;20205;-69
2022/07/13 01:45:12;;;;;;;;;;;20.90;99.90;;;;;;5069390;28;20194;-69
2022/07/13 01:47:40;;;;;;;;;;;20.80;99.90;;;;;;5063040;28;20255;-69
2022/07/13 01:50:08;;;;;;;;;;;20.90;99.90;;;;;;5068600;28;20235;-69
2022/07/13 01:52:37;;;;;;;;;;;20.80;99.90;;;;;;5070916;28;20251;-70
2022/07/13 01:55:05;;;;;;;;;;;20.80;99.90;;;;;;5068880;28;20229;-70
2022/07/13 01:57:33;;;;;;;;;;;20.80;99.90;;;;;;5068583;28;20205;-69
2022/07/13 02:00:03;;;;;;;;;;;20.80;99.90;;;;;;5068649;28;20205;-69
2022/07/13 02:02:31;;;;;;;;;;;20.80;99.90;;;;;;5065459;28;20194;-69
2022/07/13 02:04:59;;;;;;;;;;;20.80;99.90;;;;;;5067809;28;20303;-69
2022/07/13 02:07:27;;;;;;;;;;;20.70;99.90;;;;;;5068977;28;20612;-69
2022/07/13 02:09:55;;;;;;;;;;;20.70;99.90;;;;;;5064446;28;20202;-70
2022/07/13 02:12:23;;;;;;;;;;;20.70;99.90;;;;;;5069228;28;20612;-69
2022/07/13 02:14:50;;;;;;;;;;;20.70;99.90;;;;;;5070574;28;20201;-71
2022/07/13 02:17:19;;;;;;;;;;;20.60;99.90;;;;;;5068798;28;20679;-69
2022/07/13 02:19:47;;;;;;;;;;;20.60;99.90;;;;;;5061494;28;20198;-70
2022/07/13 02:22:15;;;;;;;;;;;20.50;99.90;;;;;;5064394;28;20606;-71
2022/07/13 02:24:42;;;;;;;;;;;20.50;99.90;;;;;;5069247;28;20622;-69
2022/07/13 02:27:10;;;;;;;;;;;20.50;99.90;;;;;;5068292;28;20247;-70
2022/07/13 02:29:38;;;;;;;;;;;20.50;99.90;;;;;;5069363;28;20651;-70
2022/07/13 02:32:06;;;;;;;;;;;20.40;99.90;;;;;;5066404;28;20197;-70
2022/07/13 02:34:36;;;;;;;;;;;20.40;99.90;;;;;;5064153;28;20251;-70
2022/07/13 02:37:03;;;;;;;;;;;20.40;99.90;;;;;;5068932;28;20551;-70
2022/07/13 02:39:31;;;;;;;;;;;20.40;99.90;;;;;;5068130;28;20190;-69
2022/07/13 02:41:59;;;;;;;;;;;20.40;99.90;;;;;;5067987;28;20259;-69
2022/07/13 02:44:27;;;;;;;;;;;20.30;99.90;;;;;;5069682;28;20572;-70
2022/07/13 02:46:55;;;;;;;;;;;20.30;99.90;;;;;;5068941;28;20213;-67
2022/07/13 02:49:23;;;;;;;;;;;20.30;99.90;;;;;;5066185;28;20186;-70
2022/07/13 02:51:52;;;;;;;;;;;20.30;99.90;;;;;;5067693;28;20259;-69
2022/07/13 02:54:20;;;;;;;;;;;20.30;99.90;;;;;;5068179;28;20208;-69
2022/07/13 02:56:48;;;;;;;;;;;20.30;99.90;;;;;;5064335;28;20662;-69
2022/07/13 02:59:15;;;;;;;;;;;20.30;99.90;;;;;;5067502;28;20202;-68
2022/07/13 03:01:43;;;;;;;;;;;20.20;99.90;;;;;;5070161;28;20736;-69
2022/07/13 03:04:11;;;;;;;;;;;20.20;99.90;;;;;;5071161;28;20198;-68
2022/07/13 03:06:39;;;;;;;;;;;20.20;99.90;;;;;;5070289;28;20236;-68
2022/07/13 03:09:08;;;;;;;;;;;20.20;99.90;;;;;;5065196;28;20620;-69
2022/07/13 03:11:36;;;;;;;;;;;20.20;99.90;;;;;;5062064;28;20198;-70
2022/07/13 03:14:03;;;;;;;;;;;20.20;99.90;;;;;;5067500;28;20243;-69
2022/07/13 03:16:32;;;;;;;;;;;20.20;99.90;;;;;;5070671;28;20596;-70
2022/07/13 03:19:00;;;;;;;;;;;20.10;99.90;;;;;;5068474;28;20549;-70
2022/07/13 03:21:28;;;;;;;;;;;20.10;99.90;;;;;;5066188;28;20202;-69
2022/07/13 03:23:56;;;;;;;;;;;20.10;99.90;;;;;;5069742;28;20653;-70
2022/07/13 03:26:26;;;;;;;;;;;20.10;99.90;;;;;;5068781;28;20236;-70
2022/07/13 03:28:53;;;;;;;;;;;20.10;99.90;;;;;;5069677;28;20198;-69
2022/07/13 03:31:21;;;;;;;;;;;20.10;99.90;;;;;;5071425;28;20625;-69
2022/07/13 03:33:49;;;;;;;;;;;20.10;99.90;;;;;;5071261;28;20198;-70
2022/07/13 03:36:17;;;;;;;;;;;20.10;99.90;;;;;;5068542;28;20206;-69
2022/07/13 03:38:45;;;;;;;;;;;20.10;99.90;;;;;;5070965;28;20186;-71
2022/07/13 03:41:12;;;;;;;;;;;20.10;99.90;;;;;;5069902;28;20255;-72
2022/07/13 03:43:41;;;;;;;;;;;20.00;99.90;;;;;;5065431;28;20231;-71
2022/07/13 03:46:09;;;;;;;;;;;20.00;99.90;;;;;;5069717;28;20190;-68
2022/07/13 03:48:37;;;;;;;;;;;20.00;99.90;;;;;;5072822;28;20209;-72
2022/07/13 03:51:05;;;;;;;;;;;20.10;99.90;;;;;;5071019;28;20190;-71
2022/07/13 03:53:33;;;;;;;;;;;20.10;99.90;;;;;;5067368;28;20240;-71
2022/07/13 03:56:00;;;;;;;;;;;20.10;99.90;;;;;;5071964;28;20202;-71
2022/07/13 03:58:28;;;;;;;;;;;20.00;99.90;;;;;;5063886;28;20194;-69
2022/07/13 04:00:57;;;;;;;;;;;20.00;99.90;;;;;;5070778;28;20197;-70
2022/07/13 04:03:25;;;;;;;;;;;20.10;99.90;;;;;;5069665;28;20724;-69
2022/07/13 04:05:53;;;;;;;;;;;20.10;99.90;;;;;;5071965;28;20209;-70
2022/07/13 04:08:20;;;;;;;;;;;20.20;99.90;;;;;;5068910;28;20206;-69
2022/07/13 04:10:48;;;;;;;;;;;20.20;99.90;;;;;;5069960;28;20794;-69
2022/07/13 04:13:16;;;;;;;;;;;20.20;99.90;;;;;;5068996;28;20190;-71
2022/07/13 04:15:44;;;;;;;;;;;20.20;99.90;;;;;;5072582;28;20619;-66
2022/07/13 04:18:13;;;;;;;;;;;20.20;99.90;;;;;;5068343;28;20279;-69
2022/07/13 04:20:41;;;;;;;;;;;20.20;99.90;;;;;;5068967;28;20198;-68
2022/07/13 04:23:08;;;;;;;;;;;20.30;99.90;;;;;;5055293;28;20263;-68
2022/07/13 04:25:36;;;;;;;;;;;20.20;99.90;;;;;;5056130;28;20202;-68
2022/07/13 04:28:04;;;;;;;;;;;20.30;99.90;;;;;;5055200;28;20201;-68
2022/07/13 04:30:32;;;;;;;;;;;20.40;99.90;;;;;;5057484;28;20275;-68
2022/07/13 04:33:00;;;;;;;;;;;20.40;99.90;;;;;;5055003;28;20662;-67
2022/07/13 04:35:30;;;;;;;;;;;20.50;99.90;;;;;;5053934;28;20206;-67
2022/07/13 04:37:57;;;;;;;;;;;20.50;99.90;;;;;;5056955;28;20237;-67
2022/07/13 04:40:26;;;;;;;;;;;20.50;99.90;;;;;;5056687;28;20779;-67
2022/07/13 04:42:53;;;;;;;;;;;20.60;99.90;;;;;;5056331;28;20213;-68
2022/07/13 04:45:22;;;;;;;;;;;20.60;99.90;;;;;;5056234;28;20296;-68
2022/07/13 04:47:50;;;;;;;;;;;20.60;99.90;;;;;;5056193;28;21034;-68
2022/07/13 04:50:17;;;;;;;;;;;20.60;99.90;;;;;;5056999;28;20872;-68
2022/07/13 04:52:47;;;;;;;;;;;20.60;99.90;;;;;;5056168;28;20669;-67
2022/07/13 04:55:16;;;;;;;;;;;20.70;99.90;;;;;;5055127;28;20216;-67
2022/07/13 04:57:44;;;;;;;;;;;20.80;99.90;;;;;;5054876;28;20271;-68
2022/07/13 05:00:12;;;;;;;;;;;20.80;99.90;;;;;;5056243;28;20202;-68
2022/07/13 05:02:40;;;;;;;;;;;20.90;99.90;;;;;;5053883;28;20274;-68
2022/07/13 05:05:08;;;;;;;;;;;20.90;99.90;;;;;;5052745;28;20217;-68
2022/07/13 05:07:36;;;;;;;;;;;21.00;99.90;;;;;;5053343;28;20252;-68
2022/07/13 05:10:08;;;;;;;;;;;21.10;99.90;;;;;;5055629;28;20299;-68
2022/07/13 05:12:40;;;;;;;;;;;21.20;99.90;;;;;;5054385;28;22177;-67
2022/07/13 05:15:08;;;;;;;;;;;21.20;99.90;;;;;;5054538;28;20318;-67
2022/07/13 05:17:36;;;;;;;;;;;21.20;99.90;;;;;;5055189;28;20951;-67
2022/07/13 05:20:04;;;;;;;;;;;21.10;99.90;;;;;;5053936;28;20253;-68
2022/07/13 05:22:32;;;;;;;;;;;21.10;99.90;;;;;;5055502;28;21187;-68
2022/07/13 05:25:00;;;;;;;;;;;21.10;99.90;;;;;;5052935;28;20658;-67
2022/07/13 05:27:29;;;;;;;;;;;21.10;99.90;;;;;;5054041;28;20198;-67
2022/07/13 05:29:57;;;;;;;;;;;21.10;99.90;;;;;;5054479;28;20208;-68
2022/07/13 05:32:25;;;;;;;;;;;21.10;99.90;;;;;;5052378;28;20643;-67
2022/07/13 05:34:53;;;;;;;;;;;21.00;99.90;;;;;;5053574;28;20279;-66
2022/07/13 05:37:21;;;;;;;;;;;21.00;99.90;;;;;;5054525;28;20212;-68
2022/07/13 05:39:49;;;;;;;;;;;21.10;99.90;;;;;;5055502;28;20788;-68
2022/07/13 05:42:17;;;;;;;;;;;21.20;99.90;;;;;;5051095;28;20205;-68
2022/07/13 05:44:46;;;;;;;;;;;21.20;99.90;;;;;;5055048;28;20284;-70
2022/07/13 05:47:14;;;;;;;;;;;21.30;99.90;;;;;;5055465;28;20198;-68
2022/07/13 05:49:41;;;;;;;;;;;21.30;99.90;;;;;;5056703;28;20197;-69
2022/07/13 05:52:09;;;;;;;;;;;21.40;99.90;;;;;;5055786;28;20239;-70
2022/07/13 05:54:37;;;;;;;;;;;21.40;99.90;;;;;;5070406;28;20206;-68
2022/07/13 05:57:10;;;;;;;;;;;21.50;99.90;;;;;;5066379;28;20202;-68
2022/07/13 05:59:40;;;;;;;;;;;21.40;99.90;;;;;;5067097;28;20206;-68
2022/07/13 06:02:10;;;;;;;;;;;21.40;99.90;;;;;;5062221;28;20618;-67
2022/07/13 06:04:39;;;;;;;;;;;21.40;99.90;;;;;;5065481;28;20198;-67
2022/07/13 06:07:06;;;;;;;;;;;21.60;99.90;;;;;;5062939;28;20194;-68
2022/07/13 06:09:34;;;;;;;;;;;21.70;99.90;;;;;;5067005;28;20255;-69
2022/07/13 06:12:02;;;;;;;;;;;21.80;99.90;;;;;;5066939;28;20229;-69
2022/07/13 06:14:30;;;;;;;;;;;21.90;99.90;;;;;;5063269;28;20209;-69
2022/07/13 06:16:58;;;;;;;;;;;22.00;99.90;;;;;;5067808;28;20209;-66
2022/07/13 06:19:27;;;;;;;;;;;22.00;99.90;;;;;;5068150;28;20055;-69
2022/07/13 06:21:54;;;;;;;;;;;22.00;99.90;;;;;;5070165;28;20113;-66
2022/07/13 06:24:22;;;;;;;;;;;22.00;99.90;;;;;;5071240;28;20625;-69
2022/07/13 06:26:50;;;;;;;;;;;22.10;99.90;;;;;;5071505;28;20209;-69
2022/07/13 06:29:17;;;;;;;;;;;22.20;99.90;;;;;;5071823;28;20202;-72
2022/07/13 06:31:45;;;;;;;;;;;22.40;99.90;;;;;;5065312;28;20744;-70
2022/07/13 06:34:13;;;;;;;;;;;22.50;99.90;;;;;;5065223;28;20631;-69
2022/07/13 06:36:42;;;;;;;;;;;22.70;99.90;;;;;;5065161;28;20210;-68
2022/07/13 06:39:10;;;;;;;;;;;22.80;99.90;;;;;;5065089;28;20198;-69
2022/07/13 06:41:38;;;;;;;;;;;22.90;99.90;;;;;;5065300;28;20643;-68
2022/07/13 06:44:06;;;;;;;;;;;23.00;99.90;;;;;;5064911;28;20243;-69
2022/07/13 06:46:33;;;;;;;;;;;23.10;99.90;;;;;;5065050;28;20263;-69
2022/07/13 06:49:02;;;;;;;;;;;23.20;99.90;;;;;;5065124;28;20201;-69
2022/07/13 06:51:29;;;;;;;;;;;23.30;99.90;;;;;;5065245;28;20198;-69
2022/07/13 06:53:58;;;;;;;;;;;23.30;99.90;;;;;;5064376;28;20232;-69
2022/07/13 06:56:26;;;;;;;;;;;23.40;99.90;;;;;;5065521;28;20194;-69
2022/07/13 06:58:54;;;;;;;;;;;23.40;99.90;;;;;;5068758;28;20267;-69
2022/07/13 07:01:22;;;;;;;;;;;23.40;99.90;;;;;;5069233;28;20197;-69
2022/07/13 07:03:49;;;;;;;;;;;23.40;99.90;;;;;;5068890;28;20259;-69
2022/07/13 07:06:17;;;;;;;;;;;23.60;99.90;;;;;;5068800;28;20214;-68
2022/07/13 07:08:45;;;;;;;;;;;23.60;99.90;;;;;;5068375;28;20205;-69
2022/07/13 07:11:14;;;;;;;;;;;23.70;99.90;;;;;;5068659;28;20251;-70
2022/07/13 07:13:42;;;;;;;;;;;23.70;99.90;;;;;;5071802;28;20205;-69
2022/07/13 07:16:10;;;;;;;;;;;23.80;99.90;;;;;;5069242;28;20220;-69
2022/07/13 07:18:37;;;;;;;;;;;23.70;99.90;;;;;;5068390;28;20292;-70
2022/07/13 07:21:21;;;;;;;;;;;23.70;99.90;;;;;;5075091;28;20243;-66
2022/07/13 07:23:49;;;;;;;;;;;23.70;99.90;;;;;;5074826;28;20228;-70
2022/07/13 07:26:18;;;;;;;;;;;23.80;99.90;;;;;;5074736;28;20221;-69
2022/07/13 07:28:45;;;;;;;;;;;23.80;99.90;;;;;;5074692;28;20626;-69
2022/07/13 07:31:13;;;;;;;;;;;24.00;99.90;;;;;;5074783;28;20206;-69
2022/07/13 07:33:41;;;;;;;;;;;24.20;99.90;;;;;;5074651;28;20225;-69
2022/07/13 07:36:09;;;;;;;;;;;24.30;99.90;;;;;;5074799;28;20202;-69
2022/07/13 07:38:37;;;;;;;;;;;24.60;99.90;;;;;;5074547;28;20198;-69
2022/07/13 07:41:07;;;;;;;;;;;24.80;99.90;;;;;;5074285;28;20285;-69
2022/07/13 07:43:36;;;;;;;;;;;24.90;99.90;;;;;;5073959;28;20240;-70
2022/07/13 07:46:04;;;;;;;;;;;25.10;99.90;;;;;;5070161;28;20206;-67
2022/07/13 07:48:32;;;;;;;;;;;25.30;99.90;;;;;;5074551;28;20194;-70
2022/07/13 07:51:02;;;;;;;;;;;25.40;99.90;;;;;;5074684;28;20202;-70
2022/07/13 07:53:30;;;;;;;;;;;25.60;99.90;;;;;;5074939;28;20202;-73
2022/07/13 07:55:58;;;;;;;;;;;25.80;99.50;;;;;;5074788;28;20263;-71
2022/07/13 07:58:25;;;;;;;;;;;25.80;99.50;;;;;;5073883;28;20190;-69
2022/07/13 08:00:54;;;;;;;;;;;25.90;99.10;;;;;;5074613;28;20210;-71
2022/07/13 08:03:22;;;;;;;;;;;25.90;99.10;;;;;;5074031;28;20711;-71
2022/07/13 08:05:52;;;;;;;;;;;25.90;99.00;;;;;;5071197;28;20202;-71
2022/07/13 08:08:20;;;;;;;;;;;26.00;99.20;;;;;;5073295;28;20202;-71
2022/07/13 08:10:48;;;;;;;;;;;25.90;98.30;;;;;;5074136;28;20202;-70
2022/07/13 08:13:15;;;;;;;;;;;26.00;99.50;;;;;;5073746;28;20658;-71
2022/07/13 08:15:43;;;;;;;;;;;26.00;98.80;;;;;;5074062;28;20201;-71
2022/07/13 08:18:12;;;;;;;;;;;26.10;99.00;;;;;;5073710;28;20575;-71
2022/07/13 08:21:00;;;;;;;;;;;26.30;99.40;;;;;;5073803;28;20575;-71
2022/07/13 08:26:16;;;;;;;;;;;26.50;98.30;;;;;;5072017;28;20217;-71
2022/07/13 08:28:44;;;;;;;;;;;26.50;97.80;;;;;;5073725;28;20206;-71
2022/07/13 08:31:12;;;;;;;;;;;26.50;98.70;;;;;;5073929;28;20194;-69
2022/07/13 08:39:11;;;;;;;;;;;26.90;97.80;;;;;;5073213;28;20832;-71
2022/07/13 08:41:45;;;;;;;;;;;27.30;97.90;;;;;;5073708;28;20237;-71
2022/07/13 08:44:13;;;;;;;;;;;27.80;97.40;;;;;;5066930;28;20691;-69
2022/07/13 08:46:41;;;;;;;;;;;28.00;97.10;;;;;;5070711;28;20247;-71
2022/07/13 08:49:10;;;;;;;;;;;28.10;96.90;;;;;;5066990;28;20229;-71
2022/07/13 08:51:42;;;;;;;;;;;28.10;96.80;;;;;;5066603;28;20197;-70
2022/07/13 08:54:10;;;;;;;;;;;28.10;97.30;;;;;;5067605;28;20647;-71
2022/07/13 08:56:40;;;;;;;;;;;28.10;96.90;;;;;;5073231;28;20206;-71
2022/07/13 08:59:08;;;;;;;;;;;28.00;96.30;;;;;;5073103;28;20214;-71
2022/07/13 09:01:35;;;;;;;;;;;28.00;95.60;;;;;;5073027;28;20222;-71
2022/07/13 09:04:08;;;;;;;;;;;28.10;95.60;;;;;;5073010;28;20230;-71
2022/07/13 09:06:48;;;;;;;;;;;28.00;95.70;;;;;;5074363;28;20663;-68
2022/07/13 09:09:27;;;;;;;;;;;28.10;95.40;;;;;;5072247;28;20209;-71
2022/07/13 09:12:16;;;;;;;;;;;28.20;95.40;;;;;;5072395;28;20271;-69
2022/07/13 09:14:49;;;;;;;;;;;28.20;95.70;;;;;;5070929;28;20194;-71
2022/07/13 09:17:33;;;;;;;;;;;28.20;95.90;;;;;;5072620;28;20197;-71
2022/07/13 09:20:04;;;;;;;;;;;28.20;95.30;;;;;;5070393;28;20463;-72
2022/07/13 09:22:33;;;;;;;;;;;28.20;95.50;;;;;;5072166;28;20708;-71
2022/07/13 09:25:01;;;;;;;;;;;28.30;95.60;;;;;;5072544;28;20248;-71
2022/07/13 09:27:45;;;;;;;;;;;28.40;95.50;;;;;;5072536;28;20671;-71
2022/07/13 09:30:20;;;;;;;;;;;28.60;95.40;;;;;;5072691;28;20205;-71
2022/07/13 09:32:48;;;;;;;;;;;28.70;95.30;;;;;;5072495;28;20197;-71
2022/07/13 09:35:16;;;;;;;;;;;28.70;95.00;;;;;;5072695;28;20244;-71
2022/07/13 09:37:45;;;;;;;;;;;29.00;95.00;;;;;;5072609;28;20197;-71
2022/07/13 09:40:17;;;;;;;;;;;29.40;95.40;;;;;;5072101;28;20648;-74
2022/07/13 09:42:45;;;;;;;;;;;29.80;94.10;;;;;;5072181;28;20205;-72
2022/07/13 09:48:00;;;;;;;;;;;29.80;92.20;;;;;;5071679;28;20205;-71
2022/07/13 09:50:37;;;;;;;;;;;29.80;92.50;;;;;;5072136;28;20222;-73
2022/07/13 09:53:23;;;;;;;;;;;29.70;92.20;;;;;;5071765;28;20213;-71
2022/07/13 09:55:52;;;;;;;;;;;29.80;92.40;;;;;;5072444;28;20243;-72
2022/07/13 09:58:23;;;;;;;;;;;29.70;91.90;;;;;;5070409;28;20224;-71
2022/07/13 10:00:51;;;;;;;;;;;29.70;91.90;;;;;;5072261;28;20611;-70
2022/07/13 10:03:19;;;;;;;;;;;29.70;91.40;;;;;;5071741;28;20256;-71
2022/07/13 10:05:47;;;;;;;;;;;29.90;91.80;;;;;;5072066;28;20194;-72
2022/07/13 10:08:17;;;;;;;;;;;29.90;91.50;;;;;;5072148;28;20228;-70
2022/07/13 10:10:45;;;;;;;;;;;29.90;91.40;;;;;;5071884;28;20201;-71
2022/07/13 10:13:13;;;;;;;;;;;30.00;91.20;;;;;;5071979;28;20724;-71
2022/07/13 10:15:41;;;;;;;;;;;30.10;91.60;;;;;;5072151;28;20198;-71
2022/07/13 10:18:10;;;;;;;;;;;30.30;92.50;;;;;;5072019;28;20624;-71
2022/07/13 10:20:40;;;;;;;;;;;30.40;91.50;;;;;;5071496;28;20181;-70
2022/07/13 10:23:08;;;;;;;;;;;30.40;91.00;;;;;;5071401;28;20248;-72
2022/07/13 10:25:57;;;;;;;;;;;30.40;90.90;;;;;;5072241;28;20222;-71
2022/07/13 10:28:28;;;;;;;;;;;30.40;91.00;;;;;;5071475;28;20593;-71
2022/07/13 10:30:56;;;;;;;;;;;30.30;90.70;;;;;;5067788;28;20242;-71
2022/07/13 10:33:25;;;;;;;;;;;30.40;90.60;;;;;;5070979;28;20198;-71
2022/07/13 10:35:54;;;;;;;;;;;30.10;90.30;;;;;;5071683;28;20580;-72
2022/07/13 10:38:26;;;;;;;;;;;30.00;90.10;;;;;;5071539;28;20197;-71
2022/07/13 10:41:13;;;;;;;;;;;30.00;90.40;;;;;;5071260;28;20198;-71
2022/07/13 10:43:52;;;;;;;;;;;30.00;90.80;;;;;;5070482;28;22371;-71
2022/07/13 10:46:42;;;;;;;;;;;29.90;89.90;;;;;;5066625;28;20254;-71
2022/07/13 10:49:27;;;;;;;;;;;30.00;90.20;;;;;;5067072;28;20233;-71
2022/07/13 10:51:57;;;;;;;;;;;30.10;90.10;;;;;;5071425;28;20209;-69
2022/07/13 10:54:37;;;;;;;;;;;30.20;89.20;;;;;;5071304;28;20201;-71
2022/07/13 10:57:15;;;;;;;;;;;30.10;88.60;;;;;;5071263;28;20538;-72
2022/07/13 10:59:47;;;;;;;;;;;30.10;90.00;;;;;;5071132;28;20236;-71
2022/07/13 11:02:33;;;;;;;;;;;30.10;90.30;;;;;;5071056;28;20205;-71
2022/07/13 11:05:01;;;;;;;;;;;30.10;90.20;;;;;;5070930;28;20704;-71
2022/07/13 11:07:39;;;;;;;;;;;30.10;89.20;;;;;;5070996;28;20276;-72
2022/07/13 11:10:21;;;;;;;;;;;30.10;90.00;;;;;;5064853;28;20251;-71
2022/07/13 11:12:55;;;;;;;;;;;30.20;90.20;;;;;;5066533;28;20208;-71
2022/07/13 11:15:41;;;;;;;;;;;30.30;92.20;;;;;;5070910;28;20203;-72
2022/07/13 11:18:24;;;;;;;;;;;30.30;89.40;;;;;;5071247;28;20197;-71
2022/07/13 11:20:55;;;;;;;;;;;30.40;88.10;;;;;;5071292;28;20210;-72
2022/07/13 11:26:13;;;;;;;;;;;30.70;90.00;;;;;;5071003;28;20205;-73
2022/07/13 11:28:45;;;;;;;;;;;30.90;88.90;;;;;;5071116;28;20194;-72
2022/07/13 11:31:15;;;;;;;;;;;31.10;88.90;;;;;;5071279;28;20197;-71
2022/07/13 11:33:49;;;;;;;;;;;31.70;87.80;;;;;;5070573;28;20202;-72
2022/07/13 11:36:21;;;;;;;;;;;32.10;87.20;;;;;;5070719;28;20190;-72
2022/07/13 11:38:59;;;;;;;;;;;32.40;86.10;;;;;;5064560;28;20657;-71
2022/07/13 11:41:27;;;;;;;;;;;32.70;84.50;;;;;;5070985;28;20214;-70
2022/07/13 11:43:54;;;;;;;;;;;32.60;83.60;;;;;;5071436;28;20202;-70
2022/07/13 11:46:24;;;;;;;;;;;32.90;85.90;;;;;;5074147;28;20169;-70
2022/07/13 11:48:58;;;;;;;;;;;33.50;83.80;;;;;;5074633;28;20677;-69
2022/07/13 11:51:26;;;;;;;;;;;34.30;83.20;;;;;;5074649;28;20184;-72
2022/07/13 11:53:54;;;;;;;;;;;34.70;80.20;;;;;;5074030;28;20685;-71
2022/07/13 11:56:23;;;;;;;;;;;35.20;81.20;;;;;;5074478;28;20232;-71
2022/07/13 11:58:50;;;;;;;;;;;35.60;78.30;;;;;;5074461;28;20221;-71
2022/07/13 12:01:18;;;;;;;;;;;35.50;78.30;;;;;;5074570;28;20192;-71
2022/07/13 12:03:50;;;;;;;;;;;35.60;76.90;;;;;;5074132;28;20184;-67
2022/07/13 12:06:19;;;;;;;;;;;35.70;74.80;;;;;;5074123;28;20260;-71
2022/07/13 12:08:47;;;;;;;;;;;35.80;73.90;;;;;;5074267;28;20207;-72
2022/07/13 12:11:15;;;;;;;;;;;35.80;73.50;;;;;;5074345;28;20223;-71
2022/07/13 12:13:44;;;;;;;;;;;35.80;70.90;;;;;;5073612;28;20830;-72
2022/07/13 12:16:12;;;;;;;;;;;35.80;70.60;;;;;;5073722;28;20173;-70
2022/07/13 12:18:58;;;;;;;;;;;36.00;70.10;;;;;;5074027;28;20685;-71
2022/07/13 12:21:26;;;;;;;;;;;36.30;69.30;;;;;;5074170;28;20655;-71
2022/07/13 12:23:54;;;;;;;;;;;36.40;68.50;;;;;;5074124;28;20170;-70
2022/07/13 12:26:21;;;;;;;;;;;36.70;68.30;;;;;;5073530;28;20266;-71
2022/07/13 12:28:49;;;;;;;;;;;36.70;69.50;;;;;;5073685;28;20208;-71
2022/07/13 12:31:19;;;;;;;;;;;36.70;67.30;;;;;;5073827;28;20682;-73
2022/07/13 12:33:47;;;;;;;;;;;36.90;68.20;;;;;;5073320;28;20220;-71
2022/07/13 12:36:19;;;;;;;;;;;36.90;65.80;;;;;;5073429;28;20229;-72
2022/07/13 12:38:57;;;;;;;;;;;36.80;67.70;;;;;;5073787;28;20257;-71
2022/07/13 12:41:29;;;;;;;;;;;36.90;66.10;;;;;;5067245;28;20195;-71
2022/07/13 12:43:58;;;;;;;;;;;37.10;65.30;;;;;;5073040;28;20191;-71
2022/07/13 12:46:26;;;;;;;;;;;37.20;64.80;;;;;;5072838;28;20191;-68
2022/07/13 12:49:01;;;;;;;;;;;37.40;63.70;;;;;;5073425;28;20215;-71
2022/07/13 12:51:46;;;;;;;;;;;37.60;63.40;;;;;;5072978;28;20618;-71
2022/07/13 12:54:14;;;;;;;;;;;37.70;63.40;;;;;;5072910;28;20258;-71
2022/07/13 12:56:49;;;;;;;;;;;37.30;62.70;;;;;;5072695;28;20261;-70
2022/07/13 12:59:18;;;;;;;;;;;37.30;62.30;;;;;;5073064;28;20226;-73
2022/07/13 13:01:47;;;;;;;;;;;37.60;62.40;;;;;;5073562;28;20199;-72
2022/07/13 13:04:16;;;;;;;;;;;37.40;61.70;;;;;;5072628;28;20579;-72
2022/07/13 13:06:47;;;;;;;;;;;37.30;61.80;;;;;;5072569;28;20256;-71
2022/07/13 13:09:16;;;;;;;;;;;37.40;61.80;;;;;;5073162;28;20226;-67
2022/07/13 13:11:46;;;;;;;;;;;37.30;61.80;;;;;;5073150;28;20213;-72
2022/07/13 13:14:14;;;;;;;;;;;37.10;61.30;;;;;;5072380;28;20574;-71
2022/07/13 13:16:42;;;;;;;;;;;37.20;60.90;;;;;;5072569;28;20684;-70
2022/07/13 13:19:10;;;;;;;;;;;37.30;61.50;;;;;;5072822;28;20264;-71
2022/07/13 13:21:38;;;;;;;;;;;37.80;62.00;;;;;;5072971;28;20197;-68
2022/07/13 13:24:09;;;;;;;;;;;38.20;59.10;;;;;;5072450;28;20180;-71
2022/07/13 13:26:39;;;;;;;;;;;38.40;59.50;;;;;;5072516;28;20278;-71
2022/07/13 13:32:13;;;;;;;;;;;38.20;57.70;;;;;;5072494;28;20171;-71
2022/07/13 13:34:40;;;;;;;;;;;37.70;58.20;;;;;;5072562;28;20253;-71
2022/07/13 13:37:08;;;;;;;;;;;37.40;58.60;;;;;;5071964;28;20198;-71
2022/07/13 13:39:37;;;;;;;;;;;37.10;58.60;;;;;;5072490;28;20642;-70
2022/07/13 13:42:05;;;;;;;;;;;36.80;59.30;;;;;;5072295;28;20190;-71
2022/07/13 13:44:33;;;;;;;;;;;36.80;59.80;;;;;;5072179;28;20632;-72
2022/07/13 13:47:00;;;;;;;;;;;36.80;58.80;;;;;;5071327;28;20245;-71
2022/07/13 13:49:28;;;;;;;;;;;36.60;57.90;;;;;;5072306;28;20306;-70
2022/07/13 13:51:56;;;;;;;;;;;36.50;58.40;;;;;;5072519;28;20575;-70
2022/07/13 13:54:25;;;;;;;;;;;36.40;58.80;;;;;;5072012;28;20221;-71
2022/07/13 13:56:55;;;;;;;;;;;36.40;59.00;;;;;;5071466;28;20195;-71
2022/07/13 13:59:22;;;;;;;;;;;35.90;58.30;;;;;;5071663;28;20238;-71
2022/07/13 14:01:50;;;;;;;;;;;35.80;58.00;;;;;;5072127;28;20253;-71
2022/07/13 14:04:19;;;;;;;;;;;35.80;58.40;;;;;;5071630;28;20563;-71
2022/07/13 14:06:47;;;;;;;;;;;35.40;58.50;;;;;;5071070;28;20549;-71
2022/07/13 14:09:14;;;;;;;;;;;35.20;58.50;;;;;;5071921;28;20230;-72
2022/07/13 14:11:42;;;;;;;;;;;35.30;58.30;;;;;;5071943;28;20180;-71
2022/07/13 14:14:11;;;;;;;;;;;35.80;58.00;;;;;;5071609;28;20677;-71
2022/07/13 14:16:39;;;;;;;;;;;36.40;58.20;;;;;;5071552;28;20223;-72
2022/07/13 14:19:08;;;;;;;;;;;37.00;57.20;;;;;;5072012;28;20218;-72
2022/07/13 14:21:36;;;;;;;;;;;37.70;56.90;;;;;;5071901;28;20637;-71
2022/07/13 14:24:04;;;;;;;;;;;38.00;56.00;;;;;;5071709;28;20195;-72
2022/07/13 14:26:48;;;;;;;;;;;38.00;56.80;;;;;;5071535;28;20216;-72
2022/07/13 14:29:29;;;;;;;;;;;36.80;55.20;;;;;;5072002;28;20222;-72
2022/07/13 14:31:57;;;;;;;;;;;36.90;55.90;;;;;;5071707;28;20175;-72
2022/07/13 14:34:46;;;;;;;;;;;37.30;55.40;;;;;;5071333;28;20632;-67
2022/07/13 14:37:15;;;;;;;;;;;37.40;54.60;;;;;;5071771;28;20232;-72
2022/07/13 14:39:43;;;;;;;;;;;37.80;54.60;;;;;;5071668;28;20252;-72
2022/07/13 14:42:11;;;;;;;;;;;37.70;53.90;;;;;;5071548;28;20387;-72
2022/07/13 14:44:40;;;;;;;;;;;37.80;54.90;;;;;;5071246;28;20286;-71
2022/07/13 14:47:08;;;;;;;;;;;37.10;56.30;;;;;;5071447;28;20200;-69